Time;durP1;ratioP1;P1;durP2;ratioP2;P2;SDS_P1;SDS_P2;PMS_P1;PMS_P2;Temp;Humidity;BMP_temperature;BMP_pressure;BME280_temperature;BME280_humidity;BME280_pressure;Samples;Min_cycle;Max_cycle;Signal;HPM_P1;HPM_P2
2023/01/15 00:01:29;;;;;;;69.23;36.67;;;;;;;4.80;100.00;100871.84;1381834;89;22199;-80
2023/01/15 00:03:58;;;;;;;68.17;39.47;;;;;;;4.79;100.00;100871.97;1532164;89;22123;-80
2023/01/15 00:06:26;;;;;;;70.63;40.40;;;;;;;4.75;100.00;100876.58;1378718;89;21208;-82
2023/01/15 00:08:53;;;;;;;64.43;37.07;;;;;;;4.73;100.00;100878.44;1379490;89;21357;-81
2023/01/15 00:11:20;;;;;;;72.33;39.60;;;;;;;4.73;100.00;100879.75;1386481;89;21288;-79
2023/01/15 00:13:47;;;;;;;67.57;38.43;;;;;;;4.73;100.00;100883.69;1380892;89;21416;-83
2023/01/15 00:16:18;;;;;;;62.80;38.43;;;;;;;4.77;100.00;100882.54;1381171;89;21210;-82
2023/01/15 00:18:53;;;;;;;77.17;43.35;;;;;;;4.77;100.00;100869.42;1538146;89;21193;-83
2023/01/15 00:21:20;;;;;;;75.53;43.10;;;;;;;4.75;100.00;100872.64;1538037;89;21275;-81
2023/01/15 00:29:17;;;;;;;67.03;35.77;;;;;;;4.66;100.00;100878.01;1531983;89;21500;-81
2023/01/15 00:31:54;;;;;;;67.87;37.50;;;;;;;4.65;100.00;100879.41;1380732;89;21259;-82
2023/01/15 00:34:20;;;;;;;69.30;36.93;;;;;;;4.65;100.00;100884.65;1520190;89;21422;-82
2023/01/15 00:36:47;;;;;;;63.10;35.73;;;;;;;4.67;100.00;100884.09;1381554;89;21477;-82
2023/01/15 00:39:13;;;;;;;64.83;37.50;;;;;;;4.67;100.00;100895.41;1385885;89;21321;-80
2023/01/15 00:41:39;;;;;;;66.90;35.83;;;;;;;4.67;100.00;100894.10;1377382;89;21261;-81
2023/01/15 00:44:05;;;;;;;67.13;38.03;;;;;;;4.65;100.00;100883.34;1387499;89;21232;-81
2023/01/15 00:46:32;;;;;;;60.20;35.40;;;;;;;4.64;100.00;100875.95;1381633;89;22141;-81
2023/01/15 00:48:58;;;;;;;59.67;34.10;;;;;;;4.65;100.00;100869.75;1381782;89;21247;-82
2023/01/15 00:51:24;;;;;;;55.10;34.27;;;;;;;4.64;100.00;100867.24;1381515;89;21336;-80
2023/01/15 00:53:51;;;;;;;61.13;34.17;;;;;;;4.62;100.00;100865.19;1387350;89;21289;-81
2023/01/15 00:56:17;;;;;;;61.93;32.80;;;;;;;4.65;100.00;100862.36;1381858;89;21267;-81
2023/01/15 00:58:45;;;;;;;59.10;33.60;;;;;;;4.65;100.00;100859.73;1387540;89;21583;-80
2023/01/15 01:01:11;;;;;;;64.73;35.30;;;;;;;4.65;100.00;100851.88;1387793;89;22147;-82
2023/01/15 01:03:37;;;;;;;59.70;33.83;;;;;;;4.61;100.00;100851.23;1381816;89;21259;-80
2023/01/15 01:06:05;;;;;;;54.33;31.97;;;;;;;4.58;100.00;100838.80;1382059;89;21407;-82
2023/01/15 01:08:32;;;;;;;59.93;33.27;;;;;;;4.58;100.00;100841.42;1379369;89;21259;-81
2023/01/15 01:11:10;;;;;;;56.23;31.03;;;;;;;4.56;100.00;100841.98;1381665;89;22022;-83
2023/01/15 01:13:37;;;;;;;55.90;31.37;;;;;;;4.55;100.00;100842.94;1378352;89;21400;-81
2023/01/15 01:16:06;;;;;;;50.13;29.60;;;;;;;4.53;100.00;100843.86;1386132;89;22192;-82
2023/01/15 01:18:32;;;;;;;55.10;33.03;;;;;;;4.53;100.00;100834.68;1526021;89;21503;-82
2023/01/15 01:20:59;;;;;;;52.70;30.77;;;;;;;4.52;100.00;100838.25;1381172;89;22132;-81
2023/01/15 01:23:25;;;;;;;56.83;32.00;;;;;;;4.47;100.00;100832.46;1381692;89;21245;-81
2023/01/15 01:25:51;;;;;;;52.30;29.13;;;;;;;4.44;100.00;100830.03;1381846;89;21341;-81
2023/01/15 01:28:17;;;;;;;55.77;30.80;;;;;;;4.43;100.00;100835.36;1381831;89;21230;-79
2023/01/15 01:30:44;;;;;;;52.50;29.73;;;;;;;4.43;100.00;100834.92;1381735;89;22178;-80
2023/01/15 01:33:10;;;;;;;48.53;28.27;;;;;;;4.45;100.00;100827.77;1381417;89;22170;-79
2023/01/15 01:35:36;;;;;;;52.50;28.10;;;;;;;4.44;100.00;100824.80;1381544;89;21291;-81
2023/01/15 01:38:02;;;;;;;52.97;29.87;;;;;;;4.43;100.00;100817.88;1381813;89;21214;-83
2023/01/15 01:40:30;;;;;;;56.37;30.33;;;;;;;4.44;100.00;100823.48;1385737;89;21363;-84
2023/01/15 01:42:56;;;;;;;50.47;28.20;;;;;;;4.39;100.00;100823.41;1386906;89;21267;-82
2023/01/15 01:45:28;;;;;;;45.90;27.30;;;;;;;4.36;100.00;100817.89;1382244;89;21503;-81
2023/01/15 01:47:59;;;;;;;50.77;25.67;;;;;;;4.32;100.00;100825.59;1538053;89;22015;-82
2023/01/15 01:50:28;;;;;;;41.27;24.87;;;;;;;4.34;100.00;100826.31;1378750;89;22146;-82
2023/01/15 01:53:03;;;;;;;42.40;24.50;;;;;;;4.31;97.80;100823.88;1385749;89;21304;-81
2023/01/15 01:55:32;;;;;;;47.03;27.00;;;;;;;4.29;97.99;100824.47;1536752;89;21311;-83
2023/01/15 01:58:02;;;;;;;46.13;24.40;;;;;;;4.28;98.19;100828.02;1378862;89;21319;-83
2023/01/15 02:00:31;;;;;;;48.20;25.30;;;;;;;4.22;97.97;100820.55;1471824;89;22357;-82
2023/01/15 02:02:58;;;;;;;41.63;24.60;;;;;;;4.18;97.57;100823.00;1378052;89;21322;-82
2023/01/15 02:05:32;;;;;;;41.37;22.37;;;;;;;4.18;97.55;100821.22;1447918;89;21325;-83
2023/01/15 02:08:00;;;;;;;42.70;24.20;;;;;;;4.20;96.83;100820.66;1464919;89;21567;-83
2023/01/15 02:10:27;;;;;;;37.10;21.80;;;;;;;4.17;95.79;100823.92;1454193;89;22411;-83
2023/01/15 02:13:11;;;;;;;43.03;24.43;;;;;;;4.15;95.48;100821.89;1457703;89;21818;-83
2023/01/15 02:15:48;;;;;;;44.00;24.97;;;;;;;4.11;95.14;100820.37;1446459;89;21539;-82
2023/01/15 02:18:31;;;;;;;36.70;22.13;;;;;;;4.09;95.44;100819.66;1457075;89;21449;-83
2023/01/15 02:21:37;;;;;;;39.40;21.90;;;;;;;4.09;95.43;100819.66;1456020;89;22486;-81
2023/01/15 02:24:07;;;;;;;40.57;21.10;;;;;;;4.05;94.57;100814.58;1457467;89;21392;-81
2023/01/15 02:26:57;;;;;;;38.20;22.48;;;;;;;4.00;94.23;100812.74;1449927;89;21362;-82
2023/01/15 02:29:48;;;;;;;39.07;20.77;;;;;;;3.99;94.68;100810.67;1462055;89;21414;-80
2023/01/15 02:32:37;;;;;;;40.43;22.07;;;;;;;3.98;94.84;100810.67;1454478;89;22324;-83
2023/01/15 02:35:18;;;;;;;39.73;23.53;;;;;;;3.97;95.15;100807.70;1456923;89;22331;-82
2023/01/15 02:37:49;;;;;;;42.30;22.95;;;;;;;3.98;94.94;100808.53;1465891;89;21562;-83
2023/01/15 02:40:20;;;;;;;45.87;24.47;;;;;;;3.92;94.81;100811.06;1451414;89;21475;-81
2023/01/15 02:42:48;;;;;;;39.25;21.60;;;;;;;3.83;95.12;100804.62;1453122;89;21348;-81
2023/01/15 02:45:22;;;;;;;38.60;22.63;;;;;;;3.91;95.40;100811.98;1450247;89;21480;-82
2023/01/15 02:47:48;;;;;;;46.77;23.50;;;;;;;3.89;95.96;100799.47;1447941;89;22294;-82
2023/01/15 02:50:18;;;;;;;43.23;22.47;;;;;;;3.89;95.96;100799.47;1457794;89;21565;-82
2023/01/15 02:52:49;;;;;;;40.52;22.07;;;;;;;3.93;96.14;100806.19;1454750;89;21547;-82
2023/01/15 02:55:19;;;;;;;;;;;;;;;3.94;96.27;100799.17;1453505;89;21576;-81
2023/01/15 02:57:47;;;;;;;51.73;26.73;;;;;;;3.96;96.45;100803.37;1451921;89;20359;-83
2023/01/15 03:00:18;;;;;;;51.13;27.60;;;;;;;3.94;96.26;100805.72;1452696;89;21384;-81
2023/01/15 03:03:10;;;;;;;40.05;22.70;;;;;;;3.92;96.64;100802.38;1460238;89;21354;-82
2023/01/15 03:05:45;;;;;;;40.87;24.00;;;;;;;3.94;96.57;100805.27;1452087;89;21598;-82
2023/01/15 03:08:14;;;;;;;42.27;23.83;;;;;;;3.94;96.65;100796.11;1454204;89;21436;-83
2023/01/15 03:11:08;;;;;;;46.43;25.67;;;;;;;3.92;96.23;100799.76;1444802;89;22501;-83
2023/01/15 03:13:55;;;;;;;50.23;25.50;;;;;;;3.88;95.67;100800.86;1456403;89;21405;-82
2023/01/15 03:16:33;;;;;;;52.33;26.40;;;;;;;3.79;95.63;100797.04;1455583;89;21644;-82
2023/01/15 03:19:29;;;;;;;41.37;22.53;;;;;;;3.79;95.13;100795.73;1454484;89;21503;-82
2023/01/15 03:22:10;;;;;;;40.63;23.03;;;;;;;3.74;95.06;100793.41;1460999;89;21649;-82
2023/01/15 03:25:05;;;;;;;49.42;25.02;;;;;;;3.75;94.79;100791.16;1458676;89;21849;-81
2023/01/15 03:27:32;;;;;;;46.50;23.77;;;;;;;3.77;95.06;100784.06;1456427;89;21377;-83
2023/01/15 03:30:03;;;;;;;47.57;24.57;;;;;;;3.75;94.77;100780.69;1450287;89;22286;-83
2023/01/15 03:32:30;;;;;;;52.73;25.03;;;;;;;3.71;94.71;100781.83;1455469;89;21407;-81
2023/01/15 03:34:57;;;;;;;46.40;25.30;;;;;;;3.71;94.76;100783.58;1455689;89;21363;-83
2023/01/15 03:37:26;;;;;;;44.57;24.40;;;;;;;3.65;94.33;100774.33;1453898;89;21436;-82
2023/01/15 03:39:54;;;;;;;45.80;23.77;;;;;;;3.66;94.89;100769.95;1456258;89;21325;-83
2023/01/15 03:43:39;;;;;;;42.80;22.43;;;;;;;3.66;94.89;100773.88;1457111;89;21451;-82
2023/01/15 03:45:27;;;;;;;40.60;21.57;;;;;;;3.65;94.62;100772.18;1456257;89;21399;-82
2023/01/15 03:48:07;;;;;;;36.60;18.53;;;;;;;3.56;94.30;100770.50;1458408;89;21554;-82
2023/01/15 03:50:56;;;;;;;37.50;20.93;;;;;;;3.53;94.57;100772.00;1452180;89;21453;-81
2023/01/15 03:53:43;;;;;;;44.83;22.33;;;;;;;3.52;94.72;100768.18;1429640;89;23229;-81
2023/01/15 03:56:32;;;;;;;33.13;19.87;;;;;;;3.51;94.89;100766.48;1458929;89;21594;-83
2023/01/15 03:59:06;;;;;;;28.87;17.30;;;;;;;3.51;95.03;100761.25;1455036;89;22135;-84
2023/01/15 04:01:38;;;;;;;40.90;21.70;;;;;;;3.45;94.94;100760.31;1445268;89;22353;-81
2023/01/15 04:04:06;;;;;;;35.37;20.63;;;;;;;3.43;95.05;100765.66;1459278;89;22331;-82
2023/01/15 04:06:36;;;;;;;42.07;22.97;;;;;;;3.44;95.24;100763.41;1456981;89;21504;-82
2023/01/15 04:09:07;;;;;;;42.35;22.48;;;;;;;3.39;95.22;100745.83;1453284;89;21370;-83
2023/01/15 04:11:33;;;;;;;41.45;22.07;;;;;;;3.41;95.68;100750.52;1456111;89;21517;-83
2023/01/15 04:13:59;;;;;;;39.63;22.03;;;;;;;3.46;95.63;100748.46;1452365;89;21437;-82
2023/01/15 04:16:29;;;;;;;47.57;23.47;;;;;;;3.48;95.69;100742.67;1456391;89;21303;-82
2023/01/15 04:18:56;;;;;;;41.67;21.20;;;;;;;3.48;95.69;100742.67;1458362;89;21414;-82
2023/01/15 04:21:23;;;;;;;50.73;24.13;;;;;;;3.52;95.66;100738.09;1450047;89;22997;-82
2023/01/15 04:23:49;;;;;;;45.53;24.00;;;;;;;3.52;95.64;100733.69;1455541;89;21324;-82
2023/01/15 04:26:16;;;;;;;41.60;22.60;;;;;;;3.54;95.65;100727.90;1452873;89;21391;-82
2023/01/15 04:28:43;;;;;;;37.73;21.40;;;;;;;3.52;95.92;100724.53;1451680;89;21399;-83
2023/01/15 04:31:09;;;;;;;44.17;24.10;;;;;;;3.55;95.65;100732.19;1456026;89;22088;-83
2023/01/15 04:33:35;;;;;;;47.87;22.27;;;;;;;3.56;95.60;100741.71;1451571;89;21525;-83
2023/01/15 04:36:04;;;;;;;49.70;25.13;;;;;;;3.56;95.60;100741.71;1453461;89;21341;-82
2023/01/15 04:38:30;;;;;;;49.20;24.50;;;;;;;3.57;95.81;100752.57;1453437;89;21337;-82
2023/01/15 04:46:40;;;;;;;44.03;22.93;;;;;;;3.58;95.97;100756.86;1451651;89;21332;-81
2023/01/15 04:49:12;;;;;;;52.73;25.27;;;;;;;3.59;95.95;100758.53;1461289;89;22066;-82
2023/01/15 04:51:39;;;;;;;47.83;24.97;;;;;;;3.64;96.04;100753.50;1447985;89;21479;-82
2023/01/15 04:54:07;;;;;;;48.70;25.67;;;;;;;3.66;96.03;100750.33;1453484;89;21587;-81
2023/01/15 04:56:44;;;;;;;45.00;23.47;;;;;;;3.63;95.82;100743.97;1459745;89;22180;-81
2023/01/15 04:59:11;;;;;;;46.87;25.20;;;;;;;3.63;95.82;100734.42;1449977;89;22397;-82
2023/01/15 05:01:38;;;;;;;49.17;25.40;;;;;;;3.61;95.72;100734.42;1450310;89;21362;-81
2023/01/15 05:04:05;;;;;;;43.33;23.40;;;;;;;3.66;96.00;100739.86;1454819;89;21450;-79
2023/01/15 05:06:32;;;;;;;45.03;22.90;;;;;;;3.68;95.96;100732.72;1455670;89;22230;-81
2023/01/15 05:09:00;;;;;;;46.50;22.63;;;;;;;3.73;96.12;100737.21;1451068;89;21304;-82
2023/01/15 05:11:27;;;;;;;51.37;23.43;;;;;;;3.73;96.12;100737.21;1457439;89;21532;-80
2023/01/15 05:13:54;;;;;;;51.70;24.77;;;;;;;3.75;96.12;100731.42;1452132;89;21333;-82
2023/01/15 05:16:24;;;;;;;51.67;27.07;;;;;;;3.77;96.18;100729.08;1459883;89;21436;-80
2023/01/15 05:18:53;;;;;;;48.33;24.50;;;;;;;3.78;96.05;100729.44;1456033;89;21569;-81
2023/01/15 05:21:32;;;;;;;50.83;26.70;;;;;;;3.75;96.15;100730.95;1452654;89;21376;-81
2023/01/15 05:24:02;;;;;;;50.67;26.13;;;;;;;3.74;96.07;100729.28;1454646;89;21296;-80
2023/01/15 05:26:31;;;;;;;47.50;27.03;;;;;;;3.77;96.32;100727.77;1458210;89;21414;-81
2023/01/15 05:28:59;;;;;;;48.73;25.63;;;;;;;3.74;96.18;100714.87;1458443;89;21355;-80
2023/01/15 05:31:26;;;;;;;55.93;26.10;;;;;;;3.77;96.29;100723.84;1459610;89;21526;-81
2023/01/15 05:33:54;;;;;;;53.47;26.23;;;;;;;3.73;96.16;100724.13;1449445;89;22308;-82
2023/01/15 05:36:25;;;;;;;56.73;25.50;;;;;;;3.73;96.16;100724.13;1457486;89;21583;-82
2023/01/15 05:38:54;;;;;;;57.58;26.82;;;;;;;3.76;96.28;100731.78;1447076;89;22383;-82
2023/01/15 05:44:09;;;;;;;57.57;26.47;;;;;;;3.77;96.65;100722.98;1461907;89;21481;-82
2023/01/15 05:46:38;;;;;;;47.97;25.90;;;;;;;3.77;96.65;100722.98;1450814;89;21533;-80
2023/01/15 05:49:12;;;;;;;46.80;23.67;;;;;;;3.82;96.66;100731.39;1455862;89;22228;-79
2023/01/15 05:51:40;;;;;;;49.43;26.03;;;;;;;3.79;96.64;100724.56;1446472;89;21436;-81
2023/01/15 05:54:10;;;;;;;56.67;26.97;;;;;;;3.81;96.39;100722.70;1457510;89;21536;-81
2023/01/15 05:56:37;;;;;;;54.37;26.63;;;;;;;3.79;96.49;100720.64;1466770;89;21362;-80
2023/01/15 05:59:04;;;;;;;61.07;31.30;;;;;;;3.71;96.40;100711.59;1464660;89;21363;-80
2023/01/15 06:01:31;;;;;;;55.80;27.80;;;;;;;3.75;96.64;100722.26;1454613;89;21600;-88
2023/01/15 06:03:59;;;;;;;58.10;30.87;;;;;;;3.74;96.79;100719.25;1453265;89;21438;-89
2023/01/15 06:06:27;;;;;;;49.67;25.07;;;;;;;3.73;96.90;100715.80;1457415;89;22235;-88
2023/01/15 06:08:53;;;;;;;51.30;27.57;;;;;;;3.73;96.97;100717.10;1453088;89;22045;-89
2023/01/15 06:11:19;;;;;;;47.80;25.53;;;;;;;3.74;96.85;100700.48;1436320;89;22286;-87
2023/01/15 06:13:46;;;;;;;53.13;25.33;;;;;;;3.76;96.81;100702.98;1455939;89;21368;-89
2023/01/15 06:16:12;;;;;;;55.13;29.50;;;;;;;3.80;96.92;100713.66;1457636;89;21532;-89
2023/01/15 06:18:39;;;;;;;59.83;30.07;;;;;;;3.77;96.91;100702.90;1457218;89;21341;-88
2023/01/15 06:21:09;;;;;;;62.70;29.83;;;;;;;3.81;96.88;100708.86;1461481;89;21392;-89
2023/01/15 06:23:36;;;;;;;53.97;26.73;;;;;;;3.79;96.96;100708.86;1458028;89;21539;-87
2023/01/15 06:26:13;;;;;;;52.80;27.57;;;;;;;3.79;96.97;100705.80;1453336;89;22069;-88
2023/01/15 06:28:41;;;;;;;50.10;27.63;;;;;;;3.80;96.94;100705.80;1459648;89;21444;-88
2023/01/15 06:31:11;;;;;;;56.00;28.47;;;;;;;3.84;97.12;100706.80;1455681;89;21349;-88
2023/01/15 06:33:37;;;;;;;50.67;26.23;;;;;;;3.83;97.15;100702.51;1459228;89;21340;-88
2023/01/15 06:36:10;;;;;;;55.47;28.00;;;;;;;3.85;97.13;100697.16;1456337;89;21479;-88
2023/01/15 06:38:39;;;;;;;45.33;24.70;;;;;;;3.83;97.15;100687.27;1458858;89;21370;-89
2023/01/15 06:47:19;;;;;;;50.33;27.10;;;;;;;3.87;97.30;100696.59;1454653;89;21392;-87
2023/01/15 06:49:07;;;;;;;46.77;25.53;;;;;;;3.89;97.18;100698.66;1458569;89;21340;-88
2023/01/15 06:51:33;;;;;;;42.53;23.07;;;;;;;3.90;97.18;100697.70;1454641;89;22293;-90
2023/01/15 06:53:59;;;;;;;48.73;24.87;;;;;;;3.92;97.07;100695.84;1441927;89;21377;-88
2023/01/15 06:56:26;;;;;;;54.47;28.67;;;;;;;3.93;96.88;100696.20;1453967;89;21497;-88
2023/01/15 06:58:54;;;;;;;53.17;27.13;;;;;;;3.95;96.85;100694.81;1458208;89;21363;-89
2023/01/15 07:01:20;;;;;;;55.53;28.50;;;;;;;3.94;96.86;100695.28;1459652;89;21398;-85
2023/01/15 07:03:46;;;;;;;51.80;29.37;;;;;;;3.95;96.71;100694.81;1453133;89;21591;-89
2023/01/15 07:06:12;;;;;;;46.30;26.83;;;;;;;3.94;96.54;100691.35;1455726;89;21318;-89
2023/01/15 07:08:39;;;;;;;47.27;25.50;;;;;;;3.96;96.76;100692.08;1455708;89;21341;-87
2023/01/15 07:11:08;;;;;;;53.03;25.93;;;;;;;3.99;96.68;100692.34;1456420;89;21463;-89
2023/01/15 07:13:36;;;;;;;57.47;27.23;;;;;;;3.99;96.33;100681.40;1451528;89;22405;-90
2023/01/15 07:16:04;;;;;;;43.60;23.13;;;;;;;3.97;96.15;100687.67;1453191;89;21413;-91
2023/01/15 07:18:32;;;;;;;48.70;25.57;;;;;;;3.97;96.21;100690.29;1453956;89;21569;-88
2023/01/15 07:20:59;;;;;;;46.43;24.27;;;;;;;3.99;96.19;100687.95;1456701;89;21414;-90
2023/01/15 07:23:26;;;;;;;47.43;24.60;;;;;;;3.97;96.11;100683.30;1457571;89;21253;-90
2023/01/15 07:25:54;;;;;;;49.27;26.00;;;;;;;3.96;96.18;100677.67;1456585;89;21555;-90
2023/01/15 07:28:23;;;;;;;51.10;25.57;;;;;;;3.97;96.11;100683.30;1448826;89;22398;-90
2023/01/15 07:30:49;;;;;;;48.00;24.63;;;;;;;4.02;96.22;100683.81;1456956;89;21491;-89
2023/01/15 07:33:15;;;;;;;46.87;24.60;;;;;;;4.06;96.33;100684.01;1455656;89;21426;-90
2023/01/15 07:35:42;;;;;;;51.23;28.47;;;;;;;4.07;96.01;100683.05;1458110;89;21437;-91
2023/01/15 07:38:08;;;;;;;46.60;23.93;;;;;;;4.10;96.02;100678.09;1457431;89;21481;-92
2023/01/15 07:40:34;;;;;;;52.33;26.47;;;;;;;4.10;95.72;100673.33;1463503;89;22346;-92
2023/01/15 07:51:15;;;;;;;46.83;23.23;;;;;;;4.10;95.33;100655.83;1453125;89;21376;-88
2023/01/15 07:53:41;;;;;;;43.50;22.67;;;;;;;4.19;95.49;100658.31;1454530;89;21354;-89
2023/01/15 07:56:07;;;;;;;44.50;25.27;;;;;;;4.22;95.25;100655.48;1454693;89;21399;-90
2023/01/15 07:58:34;;;;;;;42.47;22.97;;;;;;;4.27;95.05;100657.34;1445598;89;22944;-90
2023/01/15 08:01:00;;;;;;;43.47;24.73;;;;;;;4.30;94.40;100658.44;1466056;89;21436;-89
2023/01/15 08:03:26;;;;;;;37.47;21.07;;;;;;;4.29;94.18;100656.78;1453698;89;21606;-92
2023/01/15 08:05:52;;;;;;;38.47;21.60;;;;;;;4.26;93.10;100658.30;1458562;89;21325;-89
2023/01/15 08:08:19;;;;;;;37.00;21.43;;;;;;;4.18;93.01;100653.55;1455548;89;21325;-91
2023/01/15 08:16:15;;;;;;;34.73;21.20;;;;;;;4.14;93.30;100651.22;1454095;89;21503;-91
2023/01/15 08:18:41;;;;;;;40.50;22.90;;;;;;;4.09;93.27;100646.78;1455306;89;21347;-89
2023/01/15 08:21:14;;;;;;;37.80;21.30;;;;;;;4.05;93.34;100653.49;1454062;89;22490;-92
2023/01/15 08:23:42;;;;;;;40.57;22.43;;;;;;;4.06;93.87;100651.27;1450971;89;21377;-90
2023/01/15 08:26:08;;;;;;;49.07;23.97;;;;;;;4.10;93.64;100651.06;1465935;89;21429;-90
2023/01/15 08:28:34;;;;;;;44.07;23.97;;;;;;;4.10;93.19;100651.89;1457478;89;21543;-89
2023/01/15 08:31:00;;;;;;;45.77;24.10;;;;;;;4.17;93.30;100657.56;1456072;89;21384;-91
2023/01/15 08:33:26;;;;;;;28.20;16.67;;;;;;;4.15;92.45;100655.53;1456045;89;22324;-92
2023/01/15 08:35:52;;;;;;;30.33;17.67;;;;;;;4.14;91.05;100653.84;1456166;89;21524;-92
2023/01/15 08:38:18;;;;;;;30.63;18.63;;;;;;;4.12;90.77;100636.09;1450219;89;21466;-93
2023/01/15 08:40:57;;;;;;;40.60;21.90;;;;;;;4.14;90.30;100628.95;1456623;89;21398;-92
2023/01/15 08:43:26;;;;;;;27.60;18.37;;;;;;;4.12;90.02;100634.30;1459514;89;21422;-90
2023/01/15 08:45:56;;;;;;;31.47;18.07;;;;;;;4.14;89.97;100631.57;1453200;89;21495;-91
2023/01/15 08:48:23;;;;;;;32.58;18.48;;;;;;;4.15;90.13;100633.27;1457701;89;21399;-91
2023/01/15 08:50:50;;;;;;;31.03;17.63;;;;;;;4.16;90.03;100634.46;1437597;89;21590;-92
2023/01/15 08:53:20;;;;;;;30.20;17.00;;;;;;;4.19;89.91;100634.26;1457640;89;22371;-93
2023/01/15 08:55:47;;;;;;;29.37;17.70;;;;;;;4.21;89.75;100634.17;1459679;89;21421;-90
2023/01/15 08:58:14;;;;;;;37.43;23.53;;;;;;;4.24;89.90;100639.20;1458146;89;22360;-92
2023/01/15 09:00:41;;;;;;;37.50;21.73;;;;;;;4.28;90.30;100643.28;1452926;89;21546;-92
2023/01/15 09:03:08;;;;;;;36.07;19.17;;;;;;;4.32;90.34;100640.02;1462117;89;21458;-91
2023/01/15 09:05:37;;;;;;;30.90;17.13;;;;;;;4.34;89.71;100646.80;1454985;89;22419;-92
2023/01/15 09:08:05;;;;;;;27.33;16.27;;;;;;;4.35;89.43;100644.58;1458389;89;21377;-89
2023/01/15 09:10:33;;;;;;;26.77;17.20;;;;;;;4.41;89.67;100639.39;1464443;89;21428;-91
2023/01/15 09:13:02;;;;;;;31.10;18.47;;;;;;;4.46;88.72;100634.66;1437064;89;21526;-91
2023/01/15 09:15:32;;;;;;;31.55;19.45;;;;;;;4.49;87.71;100631.86;1464213;89;21430;-90
2023/01/15 09:17:59;;;;;;;30.13;17.93;;;;;;;4.49;87.70;100632.69;1457327;89;22177;-91
2023/01/15 09:20:25;;;;;;;27.67;16.97;;;;;;;4.53;88.67;100631.53;1454301;89;21401;-90
2023/01/15 09:22:52;;;;;;;25.07;14.07;;;;;;;4.55;88.06;100624.89;1456080;89;21481;-94
2023/01/15 09:25:19;;;;;;;27.07;15.80;;;;;;;4.53;86.91;100623.67;1455547;89;22338;-93
2023/01/15 09:27:47;;;;;;;34.03;17.67;;;;;;;4.48;85.97;100617.89;1456010;89;21362;-89
2023/01/15 09:30:18;;;;;;;29.37;18.47;;;;;;;4.49;86.67;100610.89;1461256;89;21444;-91
2023/01/15 09:32:44;;;;;;;;;;;;;;;4.54;87.45;100607.47;1462809;89;21473;-92
2023/01/15 09:35:11;;;;;;;24.30;15.47;;;;;;;4.55;87.08;100605.70;1462351;89;20323;-92
2023/01/15 09:37:37;;;;;;;29.53;18.37;;;;;;;4.57;87.84;100602.01;1458670;89;21465;-94
2023/01/15 09:40:08;;;;;;;32.57;15.13;;;;;;;4.60;87.12;100607.52;1457625;89;21599;-89
2023/01/15 09:42:48;;;;;;;25.17;16.03;;;;;;;4.59;87.47;100607.16;1446061;89;21296;-93
2023/01/15 09:45:23;;;;;;;34.30;19.07;;;;;;;4.58;86.76;100604.19;1451361;89;21535;-92
2023/01/15 09:48:13;;;;;;;32.77;17.67;;;;;;;4.62;87.60;100597.78;1455999;89;21437;-93
2023/01/15 09:51:11;;;;;;;29.03;17.43;;;;;;;4.63;86.85;100598.99;1445102;89;21662;-91
2023/01/15 09:53:49;;;;;;;25.37;16.20;;;;;;;4.61;86.64;100594.80;1468897;89;22354;-93
2023/01/15 09:56:22;;;;;;;24.10;16.40;;;;;;;4.53;84.89;100577.80;1455970;89;21540;-89
2023/01/15 10:03:41;;;;;;;26.70;16.87;;;;;;;4.61;85.92;100575.14;1455879;89;21614;-90
2023/01/15 10:06:25;;;;;;;27.07;16.37;;;;;;;4.64;85.71;100570.52;1459708;89;21377;-89
2023/01/15 10:09:16;;;;;;;21.97;15.20;;;;;;;4.67;85.25;100566.84;1452806;89;22248;-92
2023/01/15 10:14:38;;;;;;;24.47;17.73;;;;;;;4.74;85.18;100557.59;1421866;92;21445;-90
2023/01/15 10:17:40;;;;;;;22.63;15.20;;;;;;;4.80;85.48;100547.98;1423317;92;22560;-91
2023/01/15 10:24:57;;;;;;;22.52;14.43;;;;;;;4.79;84.18;100531.89;1418592;91;22570;-88
2023/01/15 10:27:32;;;;;;;27.03;16.00;;;;;;;4.82;84.21;100515.11;1426089;91;22280;-92
2023/01/15 10:30:09;;;;;;;27.10;17.70;;;;;;;4.85;83.88;100511.79;1414097;91;21562;-89
2023/01/15 10:32:50;;;;;;;22.47;15.67;;;;;;;4.91;84.83;100507.41;1424627;91;21444;-92
2023/01/15 10:35:27;;;;;;;26.62;16.57;;;;;;;4.94;84.06;100507.67;1426002;91;21437;-90
2023/01/15 10:38:17;;;;;;;29.10;19.13;;;;;;;4.95;84.58;100494.95;1427413;91;22472;-90
2023/01/15 10:41:04;;;;;;;27.93;18.10;;;;;;;5.02;85.33;100491.39;1423466;91;22236;-93
2023/01/15 10:43:45;;;;;;;25.40;15.50;;;;;;;5.02;84.17;100488.30;1433392;91;21577;-91
2023/01/15 10:50:19;;;;;;;27.47;19.37;;;;;;;5.12;84.70;100473.58;1398100;93;21578;-90
2023/01/15 10:52:53;;;;;;;27.93;16.40;;;;;;;5.14;84.08;100466.41;1431342;91;21392;-89
2023/01/15 10:55:34;;;;;;;27.03;17.23;;;;;;;5.24;84.53;100465.77;1430270;91;22049;-91
2023/01/15 10:58:38;;;;;;;27.15;16.62;;;;;;;5.23;82.81;100456.20;1417919;91;21497;-90
2023/01/15 11:01:10;;;;;;;24.77;15.77;;;;;;;5.15;82.00;100448.88;1433726;91;22366;-90
2023/01/15 11:03:41;;;;;;;23.80;16.00;;;;;;;5.16;82.92;100451.41;1438156;91;22235;-92
2023/01/15 11:06:16;;;;;;;28.30;15.60;;;;;;;5.21;83.22;100440.58;1437454;91;21421;-91
2023/01/15 11:08:55;;;;;;;25.67;17.37;;;;;;;5.23;82.79;100442.59;1434979;91;21583;-87
2023/01/15 11:20:27;;;;;;;27.97;18.60;;;;;;;5.28;82.91;100437.02;1437941;91;21436;-91
2023/01/15 11:22:58;;;;;;;;;;;;;;;5.35;83.80;100440.85;1448830;87;21532;-90
2023/01/15 11:25:32;;;;;;;29.18;19.62;;;;;;;5.38;83.03;100446.73;1465377;87;20282;-87
2023/01/15 11:28:03;;;;;;;34.60;21.73;;;;;;;5.41;83.57;100443.05;1482921;87;22380;-88
2023/01/15 11:30:36;;;;;;;27.97;19.23;;;;;;;5.38;82.98;100438.86;1489820;87;21419;-88
2023/01/15 11:33:05;;;;;;;28.57;18.13;;;;;;;5.36;82.88;100431.56;1577590;87;21991;-91
2023/01/15 11:35:33;;;;;;;37.23;20.93;;;;;;;5.36;82.93;100437.30;1416283;87;21353;-90
2023/01/15 11:38:14;;;;;;;40.17;20.70;;;;;;;5.35;82.99;100429.91;1412174;87;21398;-85
2023/01/15 11:40:53;;;;;;;31.15;19.30;;;;;;;5.39;83.09;100428.71;1509698;87;22263;-88
2023/01/15 11:52:21;;;;;;;31.27;18.73;;;;;;;5.40;83.46;100412.00;1493259;87;21493;-91
2023/01/15 11:54:53;;;;;;;27.07;18.17;;;;;;;5.48;83.75;100409.30;1488154;87;21389;-88
2023/01/15 11:57:32;;;;;;;32.23;17.80;;;;;;;5.51;83.78;100405.12;1494939;87;21390;-87
2023/01/15 11:59:59;;;;;;;30.50;18.87;;;;;;;5.55;83.42;100396.91;1490699;87;21449;-88
2023/01/15 12:02:42;;;;;;;30.57;20.53;;;;;;;5.57;83.87;100393.67;1487800;87;21859;-90
2023/01/15 12:05:18;;;;;;;29.17;19.43;;;;;;;5.59;83.75;100390.95;1491047;87;21375;-90
2023/01/15 12:07:47;;;;;;;26.37;17.33;;;;;;;5.60;83.77;100376.85;1491050;87;21397;-90
2023/01/15 12:13:42;;;;;;;29.17;19.70;;;;;;;5.71;83.91;100367.68;1451399;87;21449;-89
2023/01/15 12:16:39;;;;;;;35.27;20.40;;;;;;;5.71;82.14;100351.92;1490880;87;21614;-87
2023/01/15 12:19:52;;;;;;;28.27;18.20;;;;;;;5.78;83.16;100353.14;1489934;87;21432;-89
2023/01/15 12:22:44;;;;;;;28.53;18.03;;;;;;;5.87;83.90;100344.55;1491649;87;21412;-91
2023/01/15 12:25:31;;;;;;;31.17;18.77;;;;;;;5.94;83.67;100340.16;1491079;87;21537;-91
2023/01/15 12:28:15;;;;;;;27.70;17.40;;;;;;;5.96;83.14;100330.37;1490991;87;23297;-85
2023/01/15 12:31:14;;;;;;;22.93;14.43;;;;;;;6.01;82.77;100334.76;1473596;87;22323;-85
2023/01/15 12:33:57;;;;;;;23.73;15.40;;;;;;;6.06;82.53;100339.18;1509796;87;21530;-83
2023/01/15 12:36:48;;;;;;;21.77;15.07;;;;;;;6.06;81.33;100334.75;1578148;87;21154;-91
2023/01/15 12:39:32;;;;;;;27.40;19.27;;;;;;;6.11;82.35;100330.47;1577380;87;21494;-92
2023/01/15 12:45:03;;;;;;;28.80;17.40;;;;;;;6.14;82.17;100318.87;1507148;87;22219;-88
2023/01/15 12:47:34;;;;;;;25.00;16.45;;;;;;;6.14;81.71;100315.77;1577400;87;21250;-88
2023/01/15 12:50:22;;;;;;;26.77;16.57;;;;;;;6.14;81.82;100310.52;1496894;87;21485;-91
2023/01/15 12:52:57;;;;;;;29.50;19.10;;;;;;;6.16;81.60;100309.06;1495341;87;21516;-86